sensor_id;sensor_type;location;lat;lon;timestamp;pressure;altitude;pressure_sealevel;temperature;humidity
4012;BME280;2020;48.682;9.024;2023-02-19T00:00:29;96952.97;;;8.81;85.97
4012;BME280;2020;48.682;9.024;2023-02-19T00:02:55;96947.09;;;8.78;86.17
4012;BME280;2020;48.682;9.024;2023-02-19T00:05:22;96944.50;;;8.78;85.60
4012;BME280;2020;48.682;9.024;2023-02-19T00:07:47;96942.84;;;8.77;85.21
4012;BME280;2020;48.682;9.024;2023-02-19T00:10:12;96939.31;;;8.78;85.32
4012;BME280;2020;48.682;9.024;2023-02-19T00:12:37;96946.16;;;8.80;85.27
4012;BME280;2020;48.682;9.024;2023-02-19T00:15:03;96940.94;;;8.80;85.15
4012;BME280;2020;48.682;9.024;2023-02-19T00:17:30;96949.69;;;8.78;84.72
4012;BME280;2020;48.682;9.024;2023-02-19T00:19:55;96936.56;;;8.80;84.70
4012;BME280;2020;48.682;9.024;2023-02-19T00:22:20;96946.41;;;8.76;83.72
4012;BME280;2020;48.682;9.024;2023-02-19T00:24:47;96933.44;;;8.76;83.84
4012;BME280;2020;48.682;9.024;2023-02-19T00:27:12;96930.00;;;8.76;83.83
4012;BME280;2020;48.682;9.024;2023-02-19T00:29:37;96930.84;;;8.76;83.62
4012;BME280;2020;48.682;9.024;2023-02-19T00:32:03;96936.28;;;8.73;83.77
4012;BME280;2020;48.682;9.024;2023-02-19T00:34:28;96928.34;;;8.65;84.20
4012;BME280;2020;48.682;9.024;2023-02-19T00:36:53;96931.91;;;8.64;84.52
4012;BME280;2020;48.682;9.024;2023-02-19T00:39:18;96930.25;;;8.63;84.58
4012;BME280;2020;48.682;9.024;2023-02-19T00:41:45;96940.63;;;8.63;84.97
4012;BME280;2020;48.682;9.024;2023-02-19T00:44:11;96937.59;;;8.58;85.21
4012;BME280;2020;48.682;9.024;2023-02-19T00:46:42;96947.97;;;8.58;85.21
4012;BME280;2020;48.682;9.024;2023-02-19T00:49:13;96945.78;;;8.53;85.77
4012;BME280;2020;48.682;9.024;2023-02-19T00:51:39;96945.19;;;8.49;86.14
4012;BME280;2020;48.682;9.024;2023-02-19T00:54:05;96955.56;;;8.49;86.11
4012;BME280;2020;48.682;9.024;2023-02-19T00:56:30;96949.44;;;8.51;86.22
4012;BME280;2020;48.682;9.024;2023-02-19T00:58:56;96950.38;;;8.49;86.12
4012;BME280;2020;48.682;9.024;2023-02-19T01:01:21;96943.53;;;8.48;86.52
4012;BME280;2020;48.682;9.024;2023-02-19T01:03:47;96951.72;;;8.44;86.51
4012;BME280;2020;48.682;9.024;2023-02-19T01:06:14;96941.88;;;8.47;86.68
4012;BME280;2020;48.682;9.024;2023-02-19T01:08:40;96930.38;;;8.40;86.76
4012;BME280;2020;48.682;9.024;2023-02-19T01:11:06;96924.25;;;8.41;87.03
4012;BME280;2020;48.682;9.024;2023-02-19T01:13:32;96930.66;;;8.37;87.11
4012;BME280;2020;48.682;9.024;2023-02-19T01:16:13;96916.97;;;8.35;87.11
4012;BME280;2020;48.682;9.024;2023-02-19T01:18:39;96915.34;;;8.34;87.21
4012;BME280;2020;48.682;9.024;2023-02-19T01:21:11;96910.16;;;8.34;87.36
4012;BME280;2020;48.682;9.024;2023-02-19T01:23:37;96918.19;;;8.31;87.38
4012;BME280;2020;48.682;9.024;2023-02-19T01:26:04;96913.00;;;8.31;87.24
4012;BME280;2020;48.682;9.024;2023-02-19T01:28:30;96913.69;;;8.33;87.24
4012;BME280;2020;48.682;9.024;2023-02-19T01:31:00;96910.69;;;8.28;87.31
4012;BME280;2020;48.682;9.024;2023-02-19T01:33:25;96906.31;;;8.28;87.44
4012;BME280;2020;48.682;9.024;2023-02-19T01:35:50;96898.66;;;8.27;87.25
4012;BME280;2020;48.682;9.024;2023-02-19T01:38:16;96903.31;;;8.23;87.59
4012;BME280;2020;48.682;9.024;2023-02-19T01:40:41;96904.09;;;8.24;87.75
4012;BME280;2020;48.682;9.024;2023-02-19T01:43:14;96911.19;;;8.22;88.11
4012;BME280;2020;48.682;9.024;2023-02-19T01:45:42;96904.63;;;8.17;88.50
4012;BME280;2020;48.682;9.024;2023-02-19T01:48:11;96902.72;;;8.19;88.64
4012;BME280;2020;48.682;9.024;2023-02-19T01:50:45;96911.19;;;8.22;88.72
4012;BME280;2020;48.682;9.024;2023-02-19T01:53:13;96916.38;;;8.22;88.93
4012;BME280;2020;48.682;9.024;2023-02-19T01:55:41;96917.47;;;8.19;89.22
4012;BME280;2020;48.682;9.024;2023-02-19T01:58:07;96919.38;;;8.17;89.95
4012;BME280;2020;48.682;9.024;2023-02-19T02:00:33;96910.06;;;8.14;90.02
4012;BME280;2020;48.682;9.024;2023-02-19T02:02:59;96907.88;;;8.10;90.82
4012;BME280;2020;48.682;9.024;2023-02-19T02:05:35;96897.88;;;8.05;90.99
4012;BME280;2020;48.682;9.024;2023-02-19T02:08:03;96901.88;;;8.09;90.98
4012;BME280;2020;48.682;9.024;2023-02-19T02:10:47;96908.13;;;8.07;91.32
4012;BME280;2020;48.682;9.024;2023-02-19T02:13:13;96905.41;;;8.08;91.58
4012;BME280;2020;48.682;9.024;2023-02-19T02:15:55;96912.50;;;8.06;91.67
4012;BME280;2020;48.682;9.024;2023-02-19T02:18:28;96907.56;;;8.03;92.09
4012;BME280;2020;48.682;9.024;2023-02-19T02:20:57;96897.19;;;8.03;92.26
4012;BME280;2020;48.682;9.024;2023-02-19T02:24:05;96898.03;;;8.03;92.01
4012;BME280;2020;48.682;9.024;2023-02-19T02:26:45;96892.25;;;8.00;92.25
4012;BME280;2020;48.682;9.024;2023-02-19T02:32:24;96885.44;;;7.99;92.09
4012;BME280;2020;48.682;9.024;2023-02-19T02:34:58;96890.88;;;7.96;92.30
4012;BME280;2020;48.682;9.024;2023-02-19T02:37:26;96876.53;;;7.92;92.28
4012;BME280;2020;48.682;9.024;2023-02-19T02:39:56;96884.31;;;7.92;92.78
4012;BME280;2020;48.682;9.024;2023-02-19T02:42:22;96886.53;;;7.96;92.79
4012;BME280;2020;48.682;9.024;2023-02-19T02:44:57;96870.66;;;7.89;92.85
4012;BME280;2020;48.682;9.024;2023-02-19T02:47:52;96874.19;;;7.88;93.45
4012;BME280;2020;48.682;9.024;2023-02-19T02:50:31;96869.28;;;7.85;93.56
4012;BME280;2020;48.682;9.024;2023-02-19T02:53:02;96860.81;;;7.83;93.68
4012;BME280;2020;48.682;9.024;2023-02-19T02:55:48;96865.72;;;7.86;93.43
4012;BME280;2020;48.682;9.024;2023-02-19T02:58:16;96867.38;;;7.87;93.52
4012;BME280;2020;48.682;9.024;2023-02-19T03:00:44;96861.75;;;7.82;93.29
4012;BME280;2020;48.682;9.024;2023-02-19T03:03:31;96861.56;;;7.74;93.73
4012;BME280;2020;48.682;9.024;2023-02-19T03:06:03;96855.19;;;7.78;93.53
4012;BME280;2020;48.682;9.024;2023-02-19T03:08:34;96859.41;;;7.79;93.56
4012;BME280;2020;48.682;9.024;2023-02-19T03:11:03;96859.16;;;7.82;93.05
4012;BME280;2020;48.682;9.024;2023-02-19T03:13:51;96866.00;;;7.83;92.67
4012;BME280;2020;48.682;9.024;2023-02-19T03:16:39;96853.97;;;7.82;92.73
4012;BME280;2020;48.682;9.024;2023-02-19T03:19:26;96859.41;;;7.79;92.74
4012;BME280;2020;48.682;9.024;2023-02-19T03:22:05;96859.41;;;7.79;92.79
4012;BME280;2020;48.682;9.024;2023-02-19T03:24:37;96855.88;;;7.80;92.87
4012;BME280;2020;48.682;9.024;2023-02-19T03:27:23;96855.75;;;7.82;92.72
4012;BME280;2020;48.682;9.024;2023-02-19T03:29:51;96861.06;;;7.80;93.24
4012;BME280;2020;48.682;9.024;2023-02-19T03:32:31;96860.22;;;7.80;93.77
4012;BME280;2020;48.682;9.024;2023-02-19T03:35:05;96857.78;;;7.78;94.04
4012;BME280;2020;48.682;9.024;2023-02-19T03:37:38;96851.16;;;7.64;94.91
4012;BME280;2020;48.682;9.024;2023-02-19T03:40:06;96855.25;;;7.67;94.56
4012;BME280;2020;48.682;9.024;2023-02-19T03:45:36;96847.34;;;7.68;93.14
4012;BME280;2020;48.682;9.024;2023-02-19T03:48:33;96857.16;;;7.65;93.11
4012;BME280;2020;48.682;9.024;2023-02-19T03:51:20;96851.16;;;7.64;93.18
4012;BME280;2020;48.682;9.024;2023-02-19T03:53:58;96864.59;;;7.58;93.46
4012;BME280;2020;48.682;9.024;2023-02-19T03:56:32;96867.09;;;7.59;93.40
4012;BME280;2020;48.682;9.024;2023-02-19T03:59:26;96869.69;;;7.59;93.03
4012;BME280;2020;48.682;9.024;2023-02-19T04:02:13;96866.66;;;7.54;92.80
4012;BME280;2020;48.682;9.024;2023-02-19T04:04:46;96859.94;;;7.52;92.82
4012;BME280;2020;48.682;9.024;2023-02-19T04:07:15;96865.69;;;7.55;92.57
4012;BME280;2020;48.682;9.024;2023-02-19T04:09:44;96868.28;;;7.55;92.48
4012;BME280;2020;48.682;9.024;2023-02-19T04:12:11;96869.22;;;7.54;92.17
4012;BME280;2020;48.682;9.024;2023-02-19T04:14:42;96870.19;;;7.53;91.68
4012;BME280;2020;48.682;9.024;2023-02-19T04:17:20;96868.53;;;7.52;91.60
4012;BME280;2020;48.682;9.024;2023-02-19T04:19:49;96882.44;;;7.51;91.24
4012;BME280;2020;48.682;9.024;2023-02-19T04:22:16;96883.56;;;7.58;91.26
4012;BME280;2020;48.682;9.024;2023-02-19T04:24:52;96877.19;;;7.63;90.67
4012;BME280;2020;48.682;9.024;2023-02-19T04:27:19;96879.53;;;7.66;90.49
4012;BME280;2020;48.682;9.024;2023-02-19T04:29:45;96884.72;;;7.66;90.11
4012;BME280;2020;48.682;9.024;2023-02-19T04:32:11;96879.78;;;7.63;90.09
4012;BME280;2020;48.682;9.024;2023-02-19T04:34:36;96888.25;;;7.65;90.00
4012;BME280;2020;48.682;9.024;2023-02-19T04:37:02;96896.97;;;7.64;89.70
4012;BME280;2020;48.682;9.024;2023-02-19T04:39:27;96893.09;;;7.58;89.69
4012;BME280;2020;48.682;9.024;2023-02-19T04:41:53;96899.63;;;7.52;89.84
4012;BME280;2020;48.682;9.024;2023-02-19T04:44:18;96896.78;;;7.55;89.77
4012;BME280;2020;48.682;9.024;2023-02-19T04:46:43;96906.06;;;7.58;89.98
4012;BME280;2020;48.682;9.024;2023-02-19T04:49:09;96901.00;;;7.56;89.71
4012;BME280;2020;48.682;9.024;2023-02-19T04:51:34;96901.25;;;7.53;89.30
4012;BME280;2020;48.682;9.024;2023-02-19T04:53:59;96906.44;;;7.53;89.15
4012;BME280;2020;48.682;9.024;2023-02-19T04:56:25;96917.06;;;7.50;89.55
4012;BME280;2020;48.682;9.024;2023-02-19T04:58:50;96916.22;;;7.50;89.63
4012;BME280;2020;48.682;9.024;2023-02-19T05:01:16;96914.06;;;7.55;89.34
4012;BME280;2020;48.682;9.024;2023-02-19T05:03:41;96914.66;;;7.58;89.24
4012;BME280;2020;48.682;9.024;2023-02-19T05:06:08;96910.47;;;7.46;89.61
4012;BME280;2020;48.682;9.024;2023-02-19T05:08:35;96918.81;;;7.50;89.59
4012;BME280;2020;48.682;9.024;2023-02-19T05:11:02;96920.34;;;7.52;89.40
4012;BME280;2020;48.682;9.024;2023-02-19T05:13:28;96911.63;;;7.53;89.48
4012;BME280;2020;48.682;9.024;2023-02-19T05:16:02;96915.84;;;7.54;89.39
4012;BME280;2020;48.682;9.024;2023-02-19T05:18:28;96906.19;;;7.56;89.40
4012;BME280;2020;48.682;9.024;2023-02-19T05:20:54;96913.03;;;7.57;89.44
4012;BME280;2020;48.682;9.024;2023-02-19T05:23:20;96915.16;;;7.52;89.89
4012;BME280;2020;48.682;9.024;2023-02-19T05:25:46;96918.69;;;7.51;89.75
4012;BME280;2020;48.682;9.024;2023-02-19T05:28:11;96930.00;;;7.50;90.03
4012;BME280;2020;48.682;9.024;2023-02-19T05:30:50;96926.91;;;7.56;89.80
4012;BME280;2020;48.682;9.024;2023-02-19T05:33:18;96924.00;;;7.50;89.71
4012;BME280;2020;48.682;9.024;2023-02-19T05:35:49;96929.31;;;7.48;89.95
4012;BME280;2020;48.682;9.024;2023-02-19T05:38:16;96922.09;;;7.52;89.99
4012;BME280;2020;48.682;9.024;2023-02-19T05:40:42;96922.25;;;7.50;89.99
4012;BME280;2020;48.682;9.024;2023-02-19T05:43:07;96923.88;;;7.51;89.73
4012;BME280;2020;48.682;9.024;2023-02-19T05:45:33;96925.53;;;7.52;89.66
4012;BME280;2020;48.682;9.024;2023-02-19T05:47:59;96918.00;;;7.49;89.77
4012;BME280;2020;48.682;9.024;2023-02-19T05:50:25;96930.94;;;7.49;89.69
4012;BME280;2020;48.682;9.024;2023-02-19T05:52:50;96928.88;;;7.43;89.82
4012;BME280;2020;48.682;9.024;2023-02-19T05:55:16;96931.44;;;7.43;89.89
4012;BME280;2020;48.682;9.024;2023-02-19T05:57:46;96934.28;;;7.40;89.58
4012;BME280;2020;48.682;9.024;2023-02-19T06:00:15;96933.34;;;7.41;88.93
4012;BME280;2020;48.682;9.024;2023-02-19T06:02:40;96947.31;;;7.50;89.19
4012;BME280;2020;48.682;9.024;2023-02-19T06:05:06;96946.50;;;7.49;88.78
4012;BME280;2020;48.682;9.024;2023-02-19T06:07:32;96946.75;;;7.46;88.79
4012;BME280;2020;48.682;9.024;2023-02-19T06:09:58;96957.09;;;7.46;88.58
4012;BME280;2020;48.682;9.024;2023-02-19T06:12:23;96969.09;;;7.47;88.52
4012;BME280;2020;48.682;9.024;2023-02-19T06:14:49;96982.88;;;7.47;89.14
4012;BME280;2020;48.682;9.024;2023-02-19T06:17:15;96985.38;;;7.38;91.08
4012;BME280;2020;48.682;9.024;2023-02-19T06:19:40;96978.81;;;7.34;92.60
4012;BME280;2020;48.682;9.024;2023-02-19T06:22:05;96980.91;;;7.28;93.29
4012;BME280;2020;48.682;9.024;2023-02-19T06:24:31;96980.34;;;7.25;92.82
4012;BME280;2020;48.682;9.024;2023-02-19T06:26:56;96995.53;;;7.18;90.81
4012;BME280;2020;48.682;9.024;2023-02-19T06:29:22;96992.47;;;7.13;89.45
4012;BME280;2020;48.682;9.024;2023-02-19T06:31:47;96992.72;;;7.10;88.94
4012;BME280;2020;48.682;9.024;2023-02-19T06:34:12;96983.22;;;7.10;86.47
4012;BME280;2020;48.682;9.024;2023-02-19T06:36:38;96996.00;;;7.12;86.81
4012;BME280;2020;48.682;9.024;2023-02-19T06:39:04;96992.03;;;7.08;84.63
4012;BME280;2020;48.682;9.024;2023-02-19T06:41:29;96997.91;;;7.10;83.81
4012;BME280;2020;48.682;9.024;2023-02-19T06:43:58;97005.56;;;7.11;82.72
4012;BME280;2020;48.682;9.024;2023-02-19T06:46:23;97007.78;;;7.16;83.13
4012;BME280;2020;48.682;9.024;2023-02-19T06:48:48;97003.44;;;7.16;81.47
4012;BME280;2020;48.682;9.024;2023-02-19T06:51:16;97012.72;;;7.19;81.67
4012;BME280;2020;48.682;9.024;2023-02-19T06:53:48;97021.19;;;7.21;80.47
4012;BME280;2020;48.682;9.024;2023-02-19T06:56:26;97022.00;;;7.22;80.26
4012;BME280;2020;48.682;9.024;2023-02-19T06:58:53;97027.19;;;7.22;79.46
4012;BME280;2020;48.682;9.024;2023-02-19T07:01:20;97033.19;;;7.22;79.51
4012;BME280;2020;48.682;9.024;2023-02-19T07:03:45;97050.38;;;7.23;79.88
4012;BME280;2020;48.682;9.024;2023-02-19T07:06:10;97039.44;;;7.20;79.55
4012;BME280;2020;48.682;9.024;2023-02-19T07:08:36;97044.63;;;7.20;79.75
4012;BME280;2020;48.682;9.024;2023-02-19T07:11:01;97056.38;;;7.24;79.99
4012;BME280;2020;48.682;9.024;2023-02-19T07:13:27;97062.59;;;7.21;80.67
4012;BME280;2020;48.682;9.024;2023-02-19T07:16:00;97066.38;;;7.17;80.13
4012;BME280;2020;48.682;9.024;2023-02-19T07:18:27;97078.13;;;7.21;80.01
4012;BME280;2020;48.682;9.024;2023-02-19T07:20:53;97079.78;;;7.22;80.24
4012;BME280;2020;48.682;9.024;2023-02-19T07:23:18;97079.09;;;7.20;80.91
4012;BME280;2020;48.682;9.024;2023-02-19T07:25:43;97088.88;;;7.16;80.93
4012;BME280;2020;48.682;9.024;2023-02-19T07:28:09;97076.72;;;7.17;80.96
4012;BME280;2020;48.682;9.024;2023-02-19T07:30:34;97068.03;;;7.18;81.18
4012;BME280;2020;48.682;9.024;2023-02-19T07:32:59;97074.03;;;7.19;80.21
4012;BME280;2020;48.682;9.024;2023-02-19T07:35:24;97078.38;;;7.18;80.25
4012;BME280;2020;48.682;9.024;2023-02-19T07:37:50;97074.38;;;7.14;79.32
4012;BME280;2020;48.682;9.024;2023-02-19T07:40:15;97085.44;;;7.16;80.31
4012;BME280;2020;48.682;9.024;2023-02-19T07:42:40;97088.72;;;7.18;79.66
4012;BME280;2020;48.682;9.024;2023-02-19T07:45:06;97102.84;;;7.14;80.13
4012;BME280;2020;48.682;9.024;2023-02-19T07:47:31;97111.34;;;7.05;81.35
4012;BME280;2020;48.682;9.024;2023-02-19T07:49:56;97119.09;;;7.05;83.61
4012;BME280;2020;48.682;9.024;2023-02-19T07:52:22;97109.81;;;7.02;84.78
4012;BME280;2020;48.682;9.024;2023-02-19T07:54:47;97111.09;;;6.96;85.37
4012;BME280;2020;48.682;9.024;2023-02-19T07:57:12;97107.78;;;6.94;85.53
4012;BME280;2020;48.682;9.024;2023-02-19T07:59:38;97114.63;;;6.95;86.14
4012;BME280;2020;48.682;9.024;2023-02-19T08:02:03;97109.22;;;6.98;86.46
4012;BME280;2020;48.682;9.024;2023-02-19T08:04:49;97098.63;;;7.01;84.98
4012;BME280;2020;48.682;9.024;2023-02-19T08:07:14;97100.03;;;7.06;84.39
4012;BME280;2020;48.682;9.024;2023-02-19T08:09:39;97101.44;;;7.10;84.03
4012;BME280;2020;48.682;9.024;2023-02-19T08:12:05;97095.47;;;7.09;82.73
4012;BME280;2020;48.682;9.024;2023-02-19T08:14:48;97103.34;;;7.08;82.62
4012;BME280;2020;48.682;9.024;2023-02-19T08:17:14;97115.56;;;7.06;82.36
4012;BME280;2020;48.682;9.024;2023-02-19T08:19:39;97113.13;;;7.04;83.81
4012;BME280;2020;48.682;9.024;2023-02-19T08:22:04;97118.84;;;6.96;85.37
4012;BME280;2020;48.682;9.024;2023-02-19T08:24:30;97128.16;;;6.87;86.92
4012;BME280;2020;48.682;9.024;2023-02-19T08:26:57;97135.09;;;6.87;87.72
4012;BME280;2020;48.682;9.024;2023-02-19T08:29:23;97138.97;;;6.81;88.85
4012;BME280;2020;48.682;9.024;2023-02-19T08:31:48;97150.34;;;6.79;89.06
4012;BME280;2020;48.682;9.024;2023-02-19T08:34:13;97152.84;;;6.80;89.05
4012;BME280;2020;48.682;9.024;2023-02-19T08:36:38;97147.44;;;6.83;89.84
4012;BME280;2020;48.682;9.024;2023-02-19T08:39:04;97156.63;;;6.87;89.76
4012;BME280;2020;48.682;9.024;2023-02-19T08:41:29;97149.22;;;6.94;88.87
4012;BME280;2020;48.682;9.024;2023-02-19T08:43:54;97153.34;;;6.97;88.94
4012;BME280;2020;48.682;9.024;2023-02-19T08:46:20;97147.81;;;7.01;87.89
4012;BME280;2020;48.682;9.024;2023-02-19T08:48:46;97140.28;;;6.98;87.24
4012;BME280;2020;48.682;9.024;2023-02-19T08:51:12;97133.44;;;6.97;86.78
4012;BME280;2020;48.682;9.024;2023-02-19T08:53:38;97133.91;;;7.02;85.40
4012;BME280;2020;48.682;9.024;2023-02-19T08:56:09;97132.50;;;7.10;84.42
4012;BME280;2020;48.682;9.024;2023-02-19T08:58:35;97134.41;;;7.19;82.93
4012;BME280;2020;48.682;9.024;2023-02-19T09:01:01;97136.50;;;7.25;83.30
4012;BME280;2020;48.682;9.024;2023-02-19T09:03:27;97130.88;;;7.31;82.30
4012;BME280;2020;48.682;9.024;2023-02-19T09:05:52;97149.34;;;7.27;79.52
4012;BME280;2020;48.682;9.024;2023-02-19T09:08:17;97152.31;;;7.34;79.65
4012;BME280;2020;48.682;9.024;2023-02-19T09:10:43;97158.19;;;7.36;78.55
4012;BME280;2020;48.682;9.024;2023-02-19T09:13:08;97162.19;;;7.40;78.59
4012;BME280;2020;48.682;9.024;2023-02-19T09:15:34;97157.97;;;7.39;78.11
4012;BME280;2020;48.682;9.024;2023-02-19T09:18:01;97163.13;;;7.39;78.37
4012;BME280;2020;48.682;9.024;2023-02-19T09:20:26;97174.22;;;7.41;77.88
4012;BME280;2020;48.682;9.024;2023-02-19T09:22:56;97176.56;;;7.44;77.57
4012;BME280;2020;48.682;9.024;2023-02-19T09:25:21;97171.16;;;7.47;77.28
4012;BME280;2020;48.682;9.024;2023-02-19T09:27:46;97189.97;;;7.49;76.81
4012;BME280;2020;48.682;9.024;2023-02-19T09:30:11;97195.16;;;7.49;76.84
4012;BME280;2020;48.682;9.024;2023-02-19T09:32:37;97197.16;;;7.45;76.80
4012;BME280;2020;48.682;9.024;2023-02-19T09:35:02;97186.91;;;7.44;76.43
4012;BME280;2020;48.682;9.024;2023-02-19T09:37:27;97194.22;;;7.39;75.12
4012;BME280;2020;48.682;9.024;2023-02-19T09:39:54;97194.44;;;7.36;75.48
4012;BME280;2020;48.682;9.024;2023-02-19T09:42:23;97198.00;;;7.35;76.36
4012;BME280;2020;48.682;9.024;2023-02-19T09:44:53;97201.28;;;7.37;75.68
4012;BME280;2020;48.682;9.024;2023-02-19T09:47:21;97199.41;;;7.39;75.64
4012;BME280;2020;48.682;9.024;2023-02-19T09:49:48;97204.34;;;7.42;75.83
4012;BME280;2020;48.682;9.024;2023-02-19T09:52:22;97219.88;;;7.42;75.32
4012;BME280;2020;48.682;9.024;2023-02-19T09:54:49;97217.06;;;7.34;75.39
4012;BME280;2020;48.682;9.024;2023-02-19T09:57:19;97227.41;;;7.34;75.94
4012;BME280;2020;48.682;9.024;2023-02-19T09:59:49;97227.28;;;7.24;76.56
4012;BME280;2020;48.682;9.024;2023-02-19T10:02:23;97228.53;;;7.18;78.44
4012;BME280;2020;48.682;9.024;2023-02-19T10:04:50;97234.66;;;7.17;79.22
4012;BME280;2020;48.682;9.024;2023-02-19T10:07:24;97232.31;;;7.14;79.12
4012;BME280;2020;48.682;9.024;2023-02-19T10:10:17;97231.59;;;7.12;79.19
4012;BME280;2020;48.682;9.024;2023-02-19T10:12:46;97242.88;;;7.11;78.81
4012;BME280;2020;48.682;9.024;2023-02-19T10:15:35;97246.19;;;7.13;79.31
4012;BME280;2020;48.682;9.024;2023-02-19T10:18:02;97249.47;;;7.15;79.01
4012;BME280;2020;48.682;9.024;2023-02-19T10:20:28;97246.19;;;7.13;79.43
4012;BME280;2020;48.682;9.024;2023-02-19T10:23:07;97253.47;;;7.08;79.94
4012;BME280;2020;48.682;9.024;2023-02-19T10:25:33;97240.78;;;7.16;80.69
4012;BME280;2020;48.682;9.024;2023-02-19T10:28:00;97243.25;;;7.17;79.30
4012;BME280;2020;48.682;9.024;2023-02-19T10:30:31;97235.38;;;7.19;78.22
4012;BME280;2020;48.682;9.024;2023-02-19T10:33:17;97247.16;;;7.23;78.51
4012;BME280;2020;48.682;9.024;2023-02-19T10:36:02;97235.28;;;7.32;78.11
4012;BME280;2020;48.682;9.024;2023-02-19T10:38:31;97243.66;;;7.36;76.91
4012;BME280;2020;48.682;9.024;2023-02-19T10:41:21;97244.47;;;7.36;75.95
4012;BME280;2020;48.682;9.024;2023-02-19T10:44:06;97243.53;;;7.37;76.27
4012;BME280;2020;48.682;9.024;2023-02-19T10:46:36;97250.03;;;7.43;75.40
4012;BME280;2020;48.682;9.024;2023-02-19T10:49:24;97256.84;;;7.55;75.33
4012;BME280;2020;48.682;9.024;2023-02-19T10:51:53;97258.28;;;7.59;74.20
4012;BME280;2020;48.682;9.024;2023-02-19T10:56:52;97256.63;;;7.58;73.51
4012;BME280;2020;48.682;9.024;2023-02-19T10:59:28;97255.22;;;7.66;73.09
4012;BME280;2020;48.682;9.024;2023-02-19T11:02:08;97249.78;;;7.69;72.59
4012;BME280;2020;48.682;9.024;2023-02-19T11:04:39;97244.59;;;7.80;72.82
4012;BME280;2020;48.682;9.024;2023-02-19T11:07:13;97241.41;;;7.88;71.14
4012;BME280;2020;48.682;9.024;2023-02-19T11:09:41;97244.00;;;7.99;70.62
4012;BME280;2020;48.682;9.024;2023-02-19T11:12:10;97240.47;;;8.00;70.54
4012;BME280;2020;48.682;9.024;2023-02-19T11:14:41;97239.19;;;7.95;70.70
4012;BME280;2020;48.682;9.024;2023-02-19T11:17:21;97232.81;;;7.99;70.27
4012;BME280;2020;48.682;9.024;2023-02-19T11:19:54;97225.88;;;7.99;70.37
4012;BME280;2020;48.682;9.024;2023-02-19T11:22:37;97233.03;;;7.96;70.72
4012;BME280;2020;48.682;9.024;2023-02-19T11:25:05;97248.00;;;7.92;70.22
4012;BME280;2020;48.682;9.024;2023-02-19T11:27:32;97251.66;;;7.89;70.40
4012;BME280;2020;48.682;9.024;2023-02-19T11:30:21;97249.31;;;7.86;70.60
4012;BME280;2020;48.682;9.024;2023-02-19T11:32:51;97245.06;;;7.85;70.10
4012;BME280;2020;48.682;9.024;2023-02-19T11:35:20;97241.41;;;7.88;70.57
4012;BME280;2020;48.682;9.024;2023-02-19T11:37:57;97238.94;;;7.86;70.00
4012;BME280;2020;48.682;9.024;2023-02-19T11:40:55;97228.34;;;7.89;70.38
4012;BME280;2020;48.682;9.024;2023-02-19T11:43:31;97224.22;;;7.87;69.67
4012;BME280;2020;48.682;9.024;2023-02-19T11:46:15;97227.75;;;7.86;70.08
4012;BME280;2020;48.682;9.024;2023-02-19T11:48:51;97234.00;;;7.95;69.44
4012;BME280;2020;48.682;9.024;2023-02-19T11:51:49;97230.91;;;8.01;69.38
4012;BME280;2020;48.682;9.024;2023-02-19T11:57:05;97251.66;;;8.01;69.29
4012;BME280;2020;48.682;9.024;2023-02-19T11:59:46;97242.25;;;7.88;68.70
4012;BME280;2020;48.682;9.024;2023-02-19T12:02:28;97243.75;;;7.91;69.38
4012;BME280;2020;48.682;9.024;2023-02-19T12:05:06;97255.31;;;7.98;68.92
4012;BME280;2020;48.682;9.024;2023-02-19T12:16:37;97249.03;;;8.12;67.24
4012;BME280;2020;48.682;9.024;2023-02-19T12:24:48;97250.22;;;8.19;66.74
4012;BME280;2020;48.682;9.024;2023-02-19T12:28:00;97251.38;;;8.27;66.40
4012;BME280;2020;48.682;9.024;2023-02-19T12:39:12;97219.47;;;8.59;66.17
4012;BME280;2020;48.682;9.024;2023-02-19T12:41:59;97210.00;;;8.69;64.69
4012;BME280;2020;48.682;9.024;2023-02-19T12:47:14;97221.59;;;9.07;65.00
4012;BME280;2020;48.682;9.024;2023-02-19T12:49:49;97208.88;;;9.04;63.69
4012;BME280;2020;48.682;9.024;2023-02-19T12:52:19;97226.34;;;9.02;63.87
4012;BME280;2020;48.682;9.024;2023-02-19T12:54:49;97230.44;;;9.05;64.33
4012;BME280;2020;48.682;9.024;2023-02-19T12:57:20;97224.31;;;8.85;64.98
4012;BME280;2020;48.682;9.024;2023-02-19T12:59:59;97218.22;;;8.96;65.13
4012;BME280;2020;48.682;9.024;2023-02-19T13:05:21;97206.72;;;9.10;65.00
4012;BME280;2020;48.682;9.024;2023-02-19T13:13:00;97205.63;;;9.12;64.07
4012;BME280;2020;48.682;9.024;2023-02-19T13:15:34;97219.38;;;9.24;63.05
4012;BME280;2020;48.682;9.024;2023-02-19T13:18:02;97211.13;;;9.19;61.83
4012;BME280;2020;48.682;9.024;2023-02-19T13:20:35;97209.50;;;9.18;62.33
4012;BME280;2020;48.682;9.024;2023-02-19T13:23:22;97208.09;;;9.14;62.42
4012;BME280;2020;48.682;9.024;2023-02-19T13:26:44;97203.59;;;9.16;62.10
4012;BME280;2020;48.682;9.024;2023-02-19T13:29:28;97214.97;;;9.25;61.90
4012;BME280;2020;48.682;9.024;2023-02-19T13:32:11;97210.44;;;9.17;61.65
4012;BME280;2020;48.682;9.024;2023-02-19T13:35:17;97217.47;;;9.05;62.08
4012;BME280;2020;48.682;9.024;2023-02-19T13:37:45;97223.50;;;9.05;62.36
4012;BME280;2020;48.682;9.024;2023-02-19T13:42:56;97224.50;;;8.72;62.48
4012;BME280;2020;48.682;9.024;2023-02-19T13:50:31;97214.84;;;8.62;63.34
4012;BME280;2020;48.682;9.024;2023-02-19T13:52:58;97210.50;;;8.63;63.56
4012;BME280;2020;48.682;9.024;2023-02-19T14:01:10;97215.94;;;8.48;64.22
4012;BME280;2020;48.682;9.024;2023-02-19T14:03:52;97208.41;;;8.45;63.47
4012;BME280;2020;48.682;9.024;2023-02-19T14:06:18;97194.16;;;8.40;63.86
4012;BME280;2020;48.682;9.024;2023-02-19T14:08:54;97195.66;;;8.54;64.41
4012;BME280;2020;48.682;9.024;2023-02-19T14:14:34;97192.50;;;8.50;64.07
4012;BME280;2020;48.682;9.024;2023-02-19T14:17:04;97202.25;;;8.58;64.99
4012;BME280;2020;48.682;9.024;2023-02-19T14:27:59;97198.47;;;8.62;65.48
4012;BME280;2020;48.682;9.024;2023-02-19T14:30:26;97200.34;;;8.60;65.80
4012;BME280;2020;48.682;9.024;2023-02-19T14:32:52;97211.31;;;8.63;66.17
4012;BME280;2020;48.682;9.024;2023-02-19T14:35:19;97226.28;;;8.60;66.32
4012;BME280;2020;48.682;9.024;2023-02-19T14:37:46;97215.72;;;8.40;66.42
4012;BME280;2020;48.682;9.024;2023-02-19T14:40:30;97231.28;;;8.40;66.78
4012;BME280;2020;48.682;9.024;2023-02-19T14:42:57;97239.53;;;8.45;66.80
4012;BME280;2020;48.682;9.024;2023-02-19T14:45:24;97234.34;;;8.45;66.88
4012;BME280;2020;48.682;9.024;2023-02-19T14:47:53;97231.28;;;8.40;67.04
4012;BME280;2020;48.682;9.024;2023-02-19T14:50:28;97236.22;;;8.55;67.27
4012;BME280;2020;48.682;9.024;2023-02-19T14:52:58;97235.53;;;8.53;67.16
4012;BME280;2020;48.682;9.024;2023-02-19T14:55:34;97240.63;;;8.43;67.12
4012;BME280;2020;48.682;9.024;2023-02-19T14:58:06;97239.06;;;8.40;67.36
4012;BME280;2020;48.682;9.024;2023-02-19T15:00:37;97236.47;;;8.40;67.30